createdAt,value
2023-03-21T00:00:40.061Z,100.00
2023-03-21T00:03:06.857Z,100.00
2023-03-21T00:05:33.438Z,100.00
2023-03-21T00:08:01.191Z,100.00
2023-03-21T00:10:39.894Z,100.00
2023-03-21T00:13:13.028Z,100.00
2023-03-21T00:16:01.939Z,100.00
2023-03-21T00:18:31.757Z,100.00
2023-03-21T00:21:33.764Z,100.00
2023-03-21T00:23:51.098Z,100.00
2023-03-21T00:26:17.759Z,100.00
2023-03-21T00:28:44.664Z,100.00
2023-03-21T00:31:11.138Z,100.00
2023-03-21T00:33:39.134Z,100.00
2023-03-21T00:36:07.249Z,100.00
2023-03-21T00:38:34.604Z,100.00
2023-03-21T00:41:18.836Z,100.00
2023-03-21T00:43:47.915Z,100.00
2023-03-21T00:46:14.724Z,100.00
2023-03-21T00:48:41.464Z,100.00
2023-03-21T00:51:26.281Z,100.00
2023-03-21T00:53:57.866Z,100.00
2023-03-21T00:56:24.495Z,100.00
2023-03-21T00:58:51.182Z,100.00
2023-03-21T01:01:18.273Z,100.00
2023-03-21T01:03:50.787Z,100.00
2023-03-21T01:06:19.535Z,100.00
2023-03-21T01:08:52.740Z,100.00
2023-03-21T01:11:24.513Z,100.00
2023-03-21T01:13:57.964Z,100.00
2023-03-21T01:16:31.526Z,100.00
2023-03-21T01:18:58.416Z,100.00
2023-03-21T01:21:25.345Z,100.00
2023-03-21T01:23:51.959Z,100.00
2023-03-21T01:26:18.693Z,100.00
2023-03-21T01:28:46.043Z,100.00
2023-03-21T01:31:14.741Z,100.00
2023-03-21T01:33:42.204Z,100.00
2023-03-21T01:36:14.678Z,100.00
2023-03-21T01:38:42.624Z,100.00
2023-03-21T01:41:20.427Z,100.00
2023-03-21T01:43:47.420Z,100.00
2023-03-21T01:46:21.235Z,100.00
2023-03-21T01:48:57.485Z,100.00
2023-03-21T01:51:26.451Z,100.00
2023-03-21T01:53:53.325Z,100.00
2023-03-21T01:56:28.208Z,100.00
2023-03-21T01:59:03.902Z,100.00
2023-03-21T02:01:34.729Z,100.00
2023-03-21T02:04:03.736Z,100.00
2023-03-21T02:06:40.780Z,100.00
2023-03-21T02:09:11.862Z,100.00
2023-03-21T02:11:39.508Z,100.00
2023-03-21T02:14:07.630Z,100.00
2023-03-21T02:16:50.762Z,100.00
2023-03-21T02:19:41.700Z,100.00
2023-03-21T02:22:24.326Z,100.00
2023-03-21T02:25:21.781Z,100.00
2023-03-21T02:27:51.857Z,100.00
2023-03-21T02:30:45.587Z,100.00
2023-03-21T02:33:39.455Z,100.00
2023-03-21T02:36:16.381Z,100.00
2023-03-21T02:39:01.287Z,100.00
2023-03-21T02:41:49.010Z,100.00
2023-03-21T02:44:31.646Z,100.00
2023-03-21T02:47:06.527Z,100.00
2023-03-21T02:49:42.831Z,100.00
2023-03-21T02:52:18.743Z,100.00
2023-03-21T02:54:51.598Z,100.00
2023-03-21T02:57:19.976Z,100.00
2023-03-21T02:59:55.580Z,100.00
2023-03-21T03:02:28.296Z,100.00
2023-03-21T03:04:55.710Z,100.00
2023-03-21T03:07:56.902Z,100.00
2023-03-21T03:10:44.369Z,100.00
2023-03-21T03:14:25.120Z,100.00
2023-03-21T03:17:19.447Z,100.00
2023-03-21T03:20:16.532Z,100.00
2023-03-21T03:23:01.718Z,100.00
2023-03-21T03:25:42.437Z,100.00
2023-03-21T03:28:11.655Z,100.00
2023-03-21T03:30:45.026Z,100.00
2023-03-21T03:33:17.984Z,100.00
2023-03-21T03:35:55.837Z,100.00
2023-03-21T03:38:30.052Z,100.00
2023-03-21T03:41:03.410Z,100.00
2023-03-21T03:43:41.605Z,100.00
2023-03-21T03:46:17.264Z,100.00
2023-03-21T03:48:55.926Z,100.00
2023-03-21T03:51:39.080Z,100.00
2023-03-21T03:54:11.482Z,100.00
2023-03-21T03:56:39.840Z,100.00
2023-03-21T03:59:07.415Z,100.00
2023-03-21T04:01:34.986Z,100.00
2023-03-21T04:04:12.558Z,100.00
2023-03-21T04:06:39.916Z,100.00
2023-03-21T04:09:19.120Z,100.00
2023-03-21T04:11:48.032Z,100.00
2023-03-21T04:14:14.721Z,100.00
2023-03-21T04:16:41.191Z,100.00
2023-03-21T04:19:07.640Z,100.00
2023-03-21T04:21:34.221Z,100.00
2023-03-21T04:24:01.250Z,100.00
2023-03-21T04:26:32.897Z,100.00
2023-03-21T04:29:03.054Z,100.00
2023-03-21T04:31:36.726Z,100.00
2023-03-21T04:34:09.890Z,100.00
2023-03-21T04:36:55.025Z,100.00
2023-03-21T04:39:22.052Z,100.00
2023-03-21T04:41:49.651Z,100.00
2023-03-21T04:44:17.575Z,100.00
2023-03-21T04:46:44.095Z,100.00
2023-03-21T04:49:10.878Z,100.00
2023-03-21T04:51:38.215Z,100.00
2023-03-21T04:54:05.664Z,100.00
2023-03-21T04:56:32.695Z,100.00
2023-03-21T04:59:01.180Z,100.00
2023-03-21T05:01:30.746Z,100.00
2023-03-21T05:04:02.230Z,100.00
2023-03-21T05:06:29.311Z,100.00
2023-03-21T05:09:00.137Z,100.00
2023-03-21T05:11:28.274Z,100.00
2023-03-21T05:13:54.676Z,100.00
2023-03-21T05:16:25.412Z,100.00
2023-03-21T05:18:53.459Z,100.00
2023-03-21T05:21:21.150Z,100.00
2023-03-21T05:23:54.743Z,100.00
2023-03-21T05:26:22.593Z,100.00
2023-03-21T05:28:50.043Z,100.00
2023-03-21T05:31:18.288Z,100.00
2023-03-21T05:33:45.890Z,100.00
2023-03-21T05:36:13.288Z,100.00
2023-03-21T05:38:45.770Z,100.00
2023-03-21T05:41:13.759Z,100.00
2023-03-21T05:43:40.540Z,100.00
2023-03-21T05:46:07.424Z,100.00
2023-03-21T05:48:34.719Z,100.00
2023-03-21T05:51:01.896Z,100.00
2023-03-21T05:53:28.282Z,100.00
2023-03-21T05:55:54.994Z,100.00
2023-03-21T05:58:21.406Z,100.00
2023-03-21T06:00:47.896Z,100.00
2023-03-21T06:03:14.259Z,100.00
2023-03-21T06:05:40.904Z,100.00
2023-03-21T06:08:07.381Z,100.00
2023-03-21T06:10:33.821Z,100.00
2023-03-21T06:13:00.457Z,100.00
2023-03-21T06:15:27.008Z,100.00
2023-03-21T06:17:53.416Z,100.00
2023-03-21T06:20:20.017Z,100.00
2023-03-21T06:22:46.498Z,100.00
2023-03-21T06:25:13.498Z,100.00
2023-03-21T06:27:40.226Z,100.00
2023-03-21T06:30:08.145Z,100.00
2023-03-21T06:32:34.894Z,100.00
2023-03-21T06:35:02.001Z,100.00
2023-03-21T06:37:28.617Z,100.00
2023-03-21T06:39:55.682Z,100.00
2023-03-21T06:42:22.411Z,100.00
2023-03-21T06:44:48.849Z,100.00
2023-03-21T06:47:15.775Z,100.00
2023-03-21T06:49:43.786Z,100.00
2023-03-21T06:52:10.907Z,100.00
2023-03-21T06:54:37.774Z,100.00
2023-03-21T06:57:04.186Z,100.00
2023-03-21T06:59:31.133Z,100.00
2023-03-21T07:01:58.579Z,100.00
2023-03-21T07:04:27.094Z,100.00
2023-03-21T07:06:53.797Z,100.00
2023-03-21T07:09:24.420Z,100.00
2023-03-21T07:11:53.532Z,100.00
2023-03-21T07:14:20.988Z,100.00
2023-03-21T07:16:47.469Z,100.00
2023-03-21T07:19:15.682Z,100.00
2023-03-21T07:21:42.172Z,100.00
2023-03-21T07:24:08.753Z,100.00
2023-03-21T07:26:35.272Z,100.00
2023-03-21T07:29:01.665Z,100.00
2023-03-21T07:31:28.415Z,99.94
2023-03-21T07:33:54.945Z,99.74
2023-03-21T07:36:21.398Z,99.84
2023-03-21T07:38:47.928Z,99.55
2023-03-21T07:43:41.059Z,99.53
2023-03-21T07:46:07.751Z,99.61
2023-03-21T07:48:34.342Z,99.82
2023-03-21T07:51:02.276Z,99.53
2023-03-21T07:53:28.676Z,99.37
2023-03-21T07:55:56.596Z,99.26
2023-03-21T07:58:25.013Z,99.23
2023-03-21T08:00:52.131Z,99.48
2023-03-21T08:03:18.777Z,99.37
2023-03-21T08:05:46.387Z,99.36
2023-03-21T08:08:12.917Z,99.38
2023-03-21T08:10:39.663Z,99.32
2023-03-21T08:13:06.099Z,99.11
2023-03-21T08:15:32.752Z,99.11
2023-03-21T08:18:00.614Z,99.15
2023-03-21T08:20:27.879Z,99.01
2023-03-21T08:22:54.593Z,98.60
2023-03-21T08:25:22.802Z,98.90
2023-03-21T08:27:50.783Z,98.48
2023-03-21T08:30:22.489Z,98.67
2023-03-21T08:32:49.375Z,98.70
2023-03-21T08:35:18.635Z,98.78
2023-03-21T08:37:45.304Z,98.66
2023-03-21T08:40:15.789Z,98.23
2023-03-21T08:42:43.099Z,98.10
2023-03-21T08:45:11.035Z,97.81
2023-03-21T08:47:38.384Z,97.77
2023-03-21T08:50:07.007Z,97.47
2023-03-21T08:52:33.554Z,97.34
2023-03-21T08:55:02.064Z,97.61
2023-03-21T08:57:29.537Z,96.79
2023-03-21T08:59:55.998Z,96.92
2023-03-21T09:02:22.831Z,96.61
2023-03-21T09:04:49.591Z,96.37
2023-03-21T09:07:18.074Z,95.98
2023-03-21T09:09:45.965Z,96.05
2023-03-21T09:12:14.266Z,95.70
2023-03-21T09:14:41.166Z,95.45
2023-03-21T09:17:07.647Z,95.34
2023-03-21T09:19:34.993Z,95.44
2023-03-21T09:22:03.465Z,95.23
2023-03-21T09:24:30.736Z,95.30
2023-03-21T09:26:57.149Z,95.00
2023-03-21T09:29:23.960Z,94.56
2023-03-21T09:31:53.513Z,93.90
2023-03-21T09:34:20.061Z,93.99
2023-03-21T09:36:48.513Z,93.84
2023-03-21T09:39:17.125Z,93.88
2023-03-21T09:42:19.354Z,93.97
2023-03-21T09:45:04.900Z,93.23
2023-03-21T09:47:45.276Z,93.31
2023-03-21T09:50:20.553Z,93.53
2023-03-21T09:52:53.931Z,92.94
2023-03-21T09:55:24.208Z,92.87
2023-03-21T09:58:16.125Z,93.06
2023-03-21T10:00:47.536Z,92.76
2023-03-21T10:03:26.049Z,92.70
2023-03-21T10:05:58.636Z,92.84
2023-03-21T10:08:31.060Z,92.06
2023-03-21T10:11:03.768Z,91.85
2023-03-21T10:13:34.496Z,91.12
2023-03-21T10:16:10.536Z,90.65
2023-03-21T10:18:39.559Z,90.80
2023-03-21T10:21:06.254Z,90.63
2023-03-21T10:23:33.043Z,90.30
2023-03-21T10:26:02.933Z,90.03
2023-03-21T10:28:51.950Z,89.73
2023-03-21T10:31:25.385Z,89.50
2023-03-21T10:33:54.285Z,88.99
2023-03-21T10:36:25.813Z,88.69
2023-03-21T10:38:58.586Z,88.27
2023-03-21T10:41:24.938Z,87.22
2023-03-21T10:44:08.756Z,87.38
2023-03-21T10:46:36.363Z,87.53
2023-03-21T10:49:06.986Z,86.38
2023-03-21T10:51:36.994Z,86.38
2023-03-21T10:54:15.887Z,85.84
2023-03-21T10:57:08.646Z,85.11
2023-03-21T10:59:39.658Z,84.34
2023-03-21T11:02:15.718Z,84.24
2023-03-21T11:04:44.148Z,83.73
2023-03-21T11:07:14.372Z,84.31
2023-03-21T11:09:43.928Z,84.34
2023-03-21T11:12:14.918Z,83.57
2023-03-21T11:14:45.298Z,83.88
2023-03-21T11:17:17.965Z,83.66
2023-03-21T11:19:57.531Z,83.45
2023-03-21T11:22:29.106Z,82.67
2023-03-21T11:25:02.581Z,81.91
2023-03-21T11:27:31.149Z,82.48
2023-03-21T11:30:01.624Z,82.28
2023-03-21T11:32:37.229Z,81.39
2023-03-21T11:35:20.927Z,81.24
2023-03-21T11:37:53.255Z,80.66
2023-03-21T11:40:31.001Z,80.79
2023-03-21T11:43:01.752Z,80.69
2023-03-21T11:45:33.650Z,80.40
2023-03-21T11:48:03.425Z,80.48
2023-03-21T11:50:47.393Z,79.66
2023-03-21T11:53:40.477Z,79.22
2023-03-21T11:56:32.143Z,78.61
2023-03-21T11:59:31.952Z,78.85
2023-03-21T12:02:29.254Z,79.16
2023-03-21T12:05:27.186Z,78.92
2023-03-21T12:08:08.835Z,78.63
2023-03-21T12:10:58.530Z,79.14
2023-03-21T12:14:03.618Z,78.68
2023-03-21T12:16:57.084Z,79.39
2023-03-21T12:19:45.855Z,78.81
2023-03-21T12:22:21.386Z,78.92
2023-03-21T12:24:55.363Z,78.66
2023-03-21T12:27:43.250Z,78.46
2023-03-21T12:30:38.436Z,78.50
2023-03-21T12:33:23.720Z,78.98
2023-03-21T12:36:25.430Z,78.93
2023-03-21T12:38:54.336Z,79.17
2023-03-21T12:41:27.293Z,77.99
2023-03-21T12:44:01.391Z,77.96
2023-03-21T12:46:31.221Z,78.16
2023-03-21T12:49:02.766Z,78.52
2023-03-21T12:51:43.535Z,76.18
2023-03-21T12:54:18.851Z,75.40
2023-03-21T12:56:58.735Z,74.17
2023-03-21T12:59:32.726Z,72.71
2023-03-21T13:02:26.301Z,71.46
2023-03-21T13:05:12.700Z,72.47
2023-03-21T13:07:43.898Z,70.79
2023-03-21T13:10:21.771Z,65.76
2023-03-21T13:12:53.072Z,68.15
2023-03-21T13:15:48.497Z,68.01
2023-03-21T13:18:30.340Z,67.94
2023-03-21T13:20:59.496Z,68.48
2023-03-21T13:23:38.313Z,67.42
2023-03-21T13:26:11.041Z,65.11
2023-03-21T13:28:40.839Z,65.22
2023-03-21T13:31:21.315Z,64.92
2023-03-21T13:33:54.165Z,64.68
2023-03-21T13:36:28.016Z,65.88
2023-03-21T13:39:00.618Z,65.00
2023-03-21T13:41:37.660Z,65.06
2023-03-21T13:44:04.059Z,66.11
2023-03-21T13:46:34.113Z,64.89
2023-03-21T13:49:09.805Z,63.70
2023-03-21T13:51:36.238Z,63.28
2023-03-21T13:54:08.836Z,62.67
2023-03-21T13:56:51.305Z,65.22
2023-03-21T13:59:32.573Z,65.27
2023-03-21T14:02:00.312Z,65.04
2023-03-21T14:04:42.149Z,65.06
2023-03-21T14:07:31.386Z,65.30
2023-03-21T14:10:03.666Z,66.31
2023-03-21T14:12:41.199Z,67.05
2023-03-21T14:15:18.150Z,66.23
2023-03-21T14:17:57.403Z,66.20
2023-03-21T14:20:33.241Z,65.92
2023-03-21T14:22:59.823Z,66.08
2023-03-21T14:25:40.999Z,66.62
2023-03-21T14:28:18.432Z,66.99
2023-03-21T14:30:46.118Z,66.85
2023-03-21T14:33:22.470Z,67.45
2023-03-21T14:35:49.384Z,67.92
2023-03-21T14:38:22.196Z,67.10
2023-03-21T14:40:51.453Z,67.53
2023-03-21T14:43:19.850Z,67.43
2023-03-21T14:45:54.825Z,68.02
2023-03-21T14:48:29.825Z,67.79
2023-03-21T14:51:01.855Z,68.46
2023-03-21T14:53:32.198Z,69.02
2023-03-21T14:56:25.614Z,69.21
2023-03-21T14:58:53.524Z,69.01
2023-03-21T15:01:32.548Z,69.21
2023-03-21T15:04:01.306Z,68.75
2023-03-21T15:06:27.767Z,69.02
2023-03-21T15:08:59.888Z,68.93
2023-03-21T15:11:32.767Z,69.41
2023-03-21T15:14:02.611Z,69.62
2023-03-21T15:16:30.327Z,69.83
2023-03-21T15:18:57.478Z,69.56
2023-03-21T15:21:28.701Z,69.77
2023-03-21T15:24:03.838Z,69.54
2023-03-21T15:26:34.032Z,70.10
2023-03-21T15:29:00.749Z,70.60
2023-03-21T15:31:34.604Z,70.84
2023-03-21T15:34:01.795Z,71.07
2023-03-21T15:36:33.563Z,71.73
2023-03-21T15:39:14.917Z,71.83
2023-03-21T15:41:42.984Z,71.99
2023-03-21T15:44:09.677Z,71.90
2023-03-21T15:46:45.093Z,72.21
2023-03-21T15:49:33.057Z,72.44
2023-03-21T15:52:17.055Z,72.69
2023-03-21T15:54:55.998Z,72.34
2023-03-21T15:57:32.781Z,72.45
2023-03-21T16:00:06.269Z,72.45
2023-03-21T16:02:33.087Z,72.90
2023-03-21T16:05:03.222Z,73.21
2023-03-21T16:07:33.703Z,73.56
2023-03-21T16:10:04.460Z,73.83
2023-03-21T16:12:31.085Z,74.21
2023-03-21T16:14:57.451Z,74.52
2023-03-21T16:17:39.574Z,74.80
2023-03-21T16:20:20.123Z,74.81
2023-03-21T16:22:47.424Z,75.26
2023-03-21T16:25:14.250Z,75.43
2023-03-21T16:27:41.072Z,76.15
2023-03-21T16:30:10.135Z,77.55
2023-03-21T16:32:36.699Z,79.14
2023-03-21T16:35:04.116Z,80.24
2023-03-21T16:37:30.689Z,81.30
2023-03-21T16:39:57.189Z,81.78
2023-03-21T16:42:23.732Z,82.84
2023-03-21T16:44:50.167Z,83.04
2023-03-21T16:47:19.883Z,83.41
2023-03-21T16:49:46.707Z,83.67
2023-03-21T16:52:14.417Z,84.34
2023-03-21T16:54:41.917Z,84.54
2023-03-21T16:57:19.660Z,84.79
2023-03-21T16:59:46.573Z,84.99
2023-03-21T17:02:16.435Z,85.42
2023-03-21T17:04:44.573Z,85.33
2023-03-21T17:07:14.459Z,85.54
2023-03-21T17:09:43.694Z,85.33
2023-03-21T17:12:13.683Z,85.33
2023-03-21T17:14:44.716Z,85.21
2023-03-21T17:17:13.438Z,85.47
2023-03-21T17:19:40.431Z,85.04
2023-03-21T17:22:08.147Z,85.32
2023-03-21T17:24:35.767Z,85.49
2023-03-21T17:27:03.848Z,86.02
2023-03-21T17:29:30.340Z,85.98
2023-03-21T17:31:56.816Z,85.98
2023-03-21T17:34:23.210Z,86.37
2023-03-21T17:36:49.699Z,85.99
2023-03-21T17:39:22.757Z,86.46
2023-03-21T17:41:52.904Z,86.77
2023-03-21T17:44:20.458Z,86.72
2023-03-21T17:46:49.509Z,86.72
2023-03-21T17:49:16.850Z,87.26
2023-03-21T17:51:43.627Z,87.12
2023-03-21T17:54:10.080Z,86.64
2023-03-21T17:56:41.685Z,87.15
2023-03-21T17:59:12.250Z,86.91
2023-03-21T18:01:38.950Z,87.17
2023-03-21T18:04:05.566Z,87.37
2023-03-21T18:06:34.103Z,87.15
2023-03-21T18:09:04.410Z,87.23
2023-03-21T18:11:30.875Z,87.36
2023-03-21T18:14:10.301Z,87.28
2023-03-21T18:16:41.833Z,87.50
2023-03-21T18:19:09.860Z,87.59
2023-03-21T18:21:37.834Z,87.72
2023-03-21T18:24:04.585Z,88.03
2023-03-21T18:26:31.269Z,88.13
2023-03-21T18:29:47.326Z,88.12
2023-03-21T18:31:54.353Z,88.47
2023-03-21T18:34:29.725Z,88.28
2023-03-21T18:36:56.294Z,88.43
2023-03-21T18:39:23.029Z,88.34
2023-03-21T18:41:50.002Z,88.68
2023-03-21T18:44:22.119Z,88.83
2023-03-21T18:46:50.690Z,89.16
2023-03-21T18:52:04.774Z,89.22
2023-03-21T18:54:31.405Z,89.06
2023-03-21T18:57:33.790Z,89.50
2023-03-21T18:59:45.350Z,89.78
2023-03-21T19:02:13.932Z,89.41
2023-03-21T19:04:40.953Z,89.28
2023-03-21T19:07:08.628Z,89.39
2023-03-21T19:09:58.099Z,89.76
2023-03-21T19:12:23.647Z,90.02
2023-03-21T19:14:50.107Z,89.61
2023-03-21T19:18:15.379Z,89.67
2023-03-21T19:20:04.438Z,89.46
2023-03-21T19:22:31.716Z,89.72
2023-03-21T19:24:58.666Z,89.70
2023-03-21T19:27:25.249Z,89.44
2023-03-21T19:30:08.403Z,89.75
2023-03-21T19:32:38.213Z,89.97
2023-03-21T19:35:05.264Z,90.18
2023-03-21T19:37:32.057Z,90.17
2023-03-21T19:40:01.801Z,90.36
2023-03-21T19:42:30.682Z,90.59
2023-03-21T19:44:57.359Z,90.56
2023-03-21T19:47:23.931Z,90.64
2023-03-21T19:52:40.472Z,91.31
2023-03-21T19:55:07.340Z,91.71
2023-03-21T19:57:34.837Z,91.38
2023-03-21T20:00:01.929Z,91.34
2023-03-21T20:02:36.953Z,91.70
2023-03-21T20:05:06.748Z,91.29
2023-03-21T20:07:33.389Z,91.73
2023-03-21T20:10:00.329Z,92.02
2023-03-21T20:12:27.621Z,91.86
2023-03-21T20:15:06.920Z,92.00
2023-03-21T20:17:41.032Z,91.90
2023-03-21T20:20:13.938Z,91.98
2023-03-21T20:25:28.348Z,92.17
2023-03-21T20:28:12.928Z,92.01
2023-03-21T20:30:51.336Z,92.34
2023-03-21T20:33:17.882Z,92.54
2023-03-21T20:38:32.758Z,92.55
2023-03-21T20:41:00.806Z,92.84
2023-03-21T20:46:15.778Z,93.18
2023-03-21T20:48:42.245Z,93.15
2023-03-21T20:52:14.720Z,93.16
2023-03-21T20:53:57.999Z,93.31
2023-03-21T20:56:24.518Z,93.19
2023-03-21T20:59:04.873Z,93.15
2023-03-21T21:01:38.431Z,92.86
2023-03-21T21:04:05.757Z,92.95
2023-03-21T21:06:32.214Z,92.62
2023-03-21T21:09:00.145Z,92.61
2023-03-21T21:12:05.154Z,92.38
2023-03-21T21:14:15.023Z,92.16
2023-03-21T21:16:42.168Z,92.14
2023-03-21T21:19:09.788Z,91.80
2023-03-21T21:21:36.286Z,92.01
2023-03-21T21:24:02.919Z,91.66
2023-03-21T21:26:29.323Z,91.41
2023-03-21T21:28:58.060Z,91.37
2023-03-21T21:31:24.535Z,91.59
2023-03-21T21:33:54.114Z,91.58
2023-03-21T21:36:22.002Z,91.35
2023-03-21T21:38:49.039Z,91.78
2023-03-21T21:41:19.663Z,91.79
2023-03-21T21:43:46.638Z,92.05
2023-03-21T21:46:13.916Z,92.00
2023-03-21T21:48:41.344Z,92.24
2023-03-21T21:51:07.830Z,92.03
2023-03-21T21:53:36.340Z,92.55
2023-03-21T21:56:06.236Z,92.24
2023-03-21T21:58:38.672Z,92.47
2023-03-21T22:01:06.195Z,91.84
2023-03-21T22:03:41.692Z,91.39
2023-03-21T22:06:10.004Z,91.04
2023-03-21T22:08:37.224Z,90.54
2023-03-21T22:11:04.609Z,90.39
2023-03-21T22:13:31.232Z,89.77
2023-03-21T22:15:58.155Z,89.71
2023-03-21T22:18:24.582Z,89.64
2023-03-21T22:20:51.177Z,89.27
2023-03-21T22:23:19.413Z,88.84
2023-03-21T22:25:51.751Z,88.67
2023-03-21T22:28:22.074Z,88.45
2023-03-21T22:30:49.054Z,88.30
2023-03-21T22:33:15.790Z,87.85
2023-03-21T22:35:42.238Z,88.03
2023-03-21T22:38:08.710Z,87.69
2023-03-21T22:40:35.329Z,87.75
2023-03-21T22:43:01.964Z,87.46
2023-03-21T22:45:28.391Z,87.45
2023-03-21T22:47:55.053Z,87.49
2023-03-21T22:50:21.475Z,87.16
2023-03-21T22:52:47.936Z,87.09
2023-03-21T22:55:14.449Z,87.40
2023-03-21T22:57:40.890Z,86.85
2023-03-21T23:00:13.133Z,86.78
2023-03-21T23:02:42.885Z,87.09
2023-03-21T23:05:10.309Z,86.79
2023-03-21T23:07:37.324Z,86.49
2023-03-21T23:10:05.184Z,86.88
2023-03-21T23:12:31.874Z,86.66
2023-03-21T23:14:58.301Z,86.73
2023-03-21T23:17:25.037Z,86.46
2023-03-21T23:19:51.582Z,86.47
2023-03-21T23:22:18.234Z,86.52
2023-03-21T23:24:45.217Z,86.79
2023-03-21T23:27:14.134Z,86.98
2023-03-21T23:29:40.596Z,86.62
2023-03-21T23:32:07.111Z,86.82
2023-03-21T23:34:33.577Z,86.65
2023-03-21T23:37:00.271Z,86.75
2023-03-21T23:39:28.278Z,86.74
2023-03-21T23:41:55.071Z,86.57
2023-03-21T23:44:21.578Z,86.97
2023-03-21T23:46:48.098Z,86.66
2023-03-21T23:49:15.282Z,86.86
2023-03-21T23:51:42.096Z,86.82
2023-03-21T23:54:08.521Z,86.49
2023-03-21T23:56:35.437Z,86.87
2023-03-21T23:59:01.957Z,86.79
